Island Supplier — WCZ2444 — position and weather

sailwx.info

Track history (hours):
 
Tides and Currents Weather Stations Pressure Air Temp Water Temp Dewpoint Dewpoint Depression Visibility Wind Speed Wind Dir Waves Ship Positions

Island Supplier

Owner: Santa Catalina Island Resort Services, Inc., AVALON, CA. More information available from US FCC via Universal Licensing System and Coast Guard Vessel Documentation Center.

Last reported at 2015-Aug-27 17:30 UTC. Time now 2015-Aug-28 07:29 UTC.
Position N 33°30' W 118°34'.

Length 22 m; draft 1 m.

Type: Cargo ship. MMSI: 366765690.

Date/timePositionNaut miles runAvg speedWind from/ knotsBaromVisibWave heightAir tempDewpointWater temp
2015-Aug-27 17:30N 33°30' W 118°34'7 6.8
2015-Aug-27 16:31N 33°34' W 118°28'6 6.6
2015-Aug-27 15:33N 33°38' W 118°22'7 7.0
2015-Aug-27 14:33N 33°42' W 118°15'3 0.1
2015-Aug-26 14:33N 33°45' W 118°16'0 0.0
2015-Aug-26 13:33N 33°45' W 118°16'4 4.3
2015-Aug-26 12:33N 33°41' W 118°17'7 6.9
2015-Aug-26 11:33N 33°35' W 118°22'7 6.7
2015-Aug-26 10:28N 33°30' W 118°27'  
2015-Aug-21 14:32N 33°45' W 118°16'0 0.0
2015-Aug-21 13:23N 33°45' W 118°16'0 0.0
2015-Aug-21 12:29N 33°45' W 118°16'0 0.0
2015-Aug-20 14:33N 33°45' W 118°17'0 0.0
2015-Aug-19 14:33N 33°45' W 118°16'0 0.0
2015-Aug-19 13:33N 33°45' W 118°16'17 5.6
2015-Aug-19 10:25N 33°30' W 118°27'  
Track history (hours):
 
Tides and Currents Weather Stations Pressure Air Temp Water Temp Dewpoint Dewpoint Depression Visibility Wind Speed Wind Dir Waves Ship Positions

Island Supplier

Owner: Santa Catalina Island Resort Services, Inc., AVALON, CA. More information available from US FCC via Universal Licensing System and Coast Guard Vessel Documentation Center.

Last reported at 2015-Aug-27 17:30 UTC. Time now 2015-Aug-28 07:29 UTC.
Position N 33°30' W 118°34'.

Length 22 m; draft 1 m.

Type: Cargo ship. MMSI: 366765690.

Date/timePositionNaut miles runAvg speedWind from/ knotsBaromVisibWave heightAir tempDewpointWater temp
2015-Aug-27 17:30N 33°30' W 118°34'7 6.8
2015-Aug-27 16:31N 33°34' W 118°28'6 6.6
2015-Aug-27 15:33N 33°38' W 118°22'7 7.0
2015-Aug-27 14:33N 33°42' W 118°15'3 0.1
2015-Aug-26 14:33N 33°45' W 118°16'0 0.0
2015-Aug-26 13:33N 33°45' W 118°16'4 4.3
2015-Aug-26 12:33N 33°41' W 118°17'7 6.9
2015-Aug-26 11:33N 33°35' W 118°22'7 6.7
2015-Aug-26 10:28N 33°30' W 118°27'  
2015-Aug-21 14:32N 33°45' W 118°16'0 0.0
2015-Aug-21 13:23N 33°45' W 118°16'0 0.0
2015-Aug-21 12:29N 33°45' W 118°16'0 0.0
2015-Aug-20 14:33N 33°45' W 118°17'0 0.0
2015-Aug-19 14:33N 33°45' W 118°16'0 0.0
2015-Aug-19 13:33N 33°45' W 118°16'17 5.6
2015-Aug-19 10:25N 33°30' W 118°27'  

Dump ship's entire track history